Plover Skycam (click)  Plover Skycam (click)


Rain radar more information rain snow radar



There are no active watches, warnings or advisories

Weather Underground History page Text

Daily Summary for January 17, 2018 Units:  English    Metric   Both
« Previous Day
Next Day »
Daily Weekly Monthly Yearly Custom
  Current: High: Low: Average:
Temperature: 15.3 °F 27.1 °F -3.1 °F 15.2 °F
Dew Point: 6.9 °F 11.2 °F -5.8 °F 3.6 °F
Humidity: 69 % 89 % 46 % 61 %
Wind Speed: 19.6 mph 29.9 mph 0.0 mph 18.7 mph
Wind Gust: 19.6 mph 29.9 mph - -
Wind:WSW - - WSW
Pressure: 30.01 in 30.49 in 30.01 in -
Precipitation: 0.00 in      
Historical Graphs
 
 
Tabular Data for January 17, 2018
Time Temperature Dew Point Pressure Wind Wind Speed Wind Gust Humidity Rainfall Rate (Hourly)
00:14 0.9 °F -2.8 °F 30.49 in West 6.9 mph 6.9 mph 84 % 0.00 in
00:21 0.3 °F -3.4 °F 30.49 in West 6.9 mph 6.9 mph 84 % 0.00 in
00:27 0.0 °F -3.7 °F 30.49 in West 6.9 mph 6.9 mph 84 % 0.00 in
00:54 -0.9 °F -4.4 °F 30.49 in West 6.9 mph 6.9 mph 85 % 0.00 in
01:12 -0.9 °F -4.1 °F 30.49 in West 5.8 mph 5.8 mph 86 % 0.00 in
01:19 -0.9 °F -4.1 °F 30.49 in West 5.8 mph 5.8 mph 86 % 0.00 in
01:47 -1.3 °F -4.2 °F 30.49 in WSW 4.6 mph 4.6 mph 87 % 0.00 in
02:02 -1.3 °F -4.0 °F 30.49 in Calm     88 % 0.00 in
02:40 -1.3 °F -4.2 °F 30.49 in West 6.9 mph 6.9 mph 87 % 0.00 in
03:44 -2.6 °F -5.2 °F 30.45 in WSW 5.8 mph 5.8 mph 88 % 0.00 in
04:02 -2.7 °F -5.4 °F 30.49 in West 4.6 mph 4.6 mph 88 % 0.00 in
04:09 -2.6 °F -5.2 °F 30.49 in West 4.6 mph 4.6 mph 88 % 0.00 in
04:16 -2.6 °F -5.0 °F 30.49 in West 6.9 mph 6.9 mph 89 % 0.00 in
04:31 -2.6 °F -5.2 °F 30.49 in WSW 6.9 mph 6.9 mph 88 % 0.00 in
04:47 -2.9 °F -5.6 °F 30.49 in WSW 6.9 mph 6.9 mph 88 % 0.00 in
04:55 -3.1 °F -5.8 °F 30.45 in WSW 5.8 mph 5.8 mph 88 % 0.00 in
05:31 -2.2 °F -5.1 °F 30.45 in WSW 8.1 mph 8.1 mph 87 % 0.00 in
05:48 -1.3 °F -4.2 °F 30.45 in WSW 8.1 mph 8.1 mph 87 % 0.00 in
06:01 -1.1 °F -4.1 °F 30.45 in WSW 9.2 mph 9.2 mph 87 % 0.00 in
06:07 -1.1 °F -4.1 °F 30.45 in WSW 9.2 mph 9.2 mph 87 % 0.00 in
06:21 -0.8 °F -3.5 °F 30.45 in WSW 8.1 mph 8.1 mph 88 % 0.00 in
06:28 -0.4 °F -3.1 °F 30.43 in WSW 8.1 mph 8.1 mph 88 % 0.00 in
06:34 -0.4 °F -3.3 °F 30.43 in WSW 9.2 mph 9.2 mph 87 % 0.00 in
06:40 -0.2 °F -3.2 °F 30.45 in WSW 9.2 mph 9.2 mph 87 % 0.00 in
07:33 0.9 °F -2.1 °F 30.43 in WSW 8.1 mph 8.1 mph 87 % 0.00 in
07:44 1.2 °F -1.7 °F 30.43 in WSW 8.1 mph 8.1 mph 87 % 0.00 in
07:59 1.6 °F -1.6 °F 30.43 in WSW 8.1 mph 8.1 mph 86 % 0.00 in
08:08 1.9 °F -1.3 °F 30.43 in WSW 8.1 mph 8.1 mph 86 % 0.00 in
08:47 5.9 °F 2.1 °F 30.40 in WSW 8.1 mph 8.1 mph 84 % 0.00 in
09:05 6.4 °F 1.9 °F 30.40 in WSW 9.2 mph 9.2 mph 81 % 0.00 in
09:12 6.1 °F 0.7 °F 30.40 in WSW 6.9 mph 6.9 mph 78 % 0.00 in
09:27 5.7 °F 0.3 °F 30.40 in WSW 6.9 mph 6.9 mph 78 % 0.00 in
10:04 11.7 °F 5.0 °F 30.40 in WSW 9.2 mph 9.2 mph 74 % 0.00 in
10:10 11.8 °F 3.6 °F 30.40 in WSW 10.4 mph 10.4 mph 69 % 0.00 in
10:16 12.2 °F 4.0 °F 30.40 in WSW 10.4 mph 10.4 mph 69 % 0.00 in
10:25 12.6 °F 4.3 °F 30.37 in WSW 10.4 mph 10.4 mph 69 % 0.00 in
10:50 13.8 °F 4.5 °F 30.37 in WSW 18.4 mph 18.4 mph 66 % 0.00 in
11:02 14.0 °F 4.7 °F 30.37 in WSW 19.6 mph 19.6 mph 66 % 0.00 in
11:09 14.0 °F 4.7 °F 30.34 in WSW 19.6 mph 19.6 mph 66 % 0.00 in
11:15 14.2 °F 4.6 °F 30.34 in WSW 11.5 mph 11.5 mph 65 % 0.00 in
12:06 24.3 °F 10.4 °F 30.28 in WSW 29.9 mph 29.9 mph 55 % 0.00 in
12:12 25.2 °F 10.8 °F 30.28 in WSW 26.5 mph 26.5 mph 54 % 0.00 in
12:31 25.9 °F 11.1 °F 30.25 in WSW 26.5 mph 26.5 mph 53 % 0.00 in
12:56 24.8 °F 9.6 °F 30.22 in WSW 24.2 mph 24.2 mph 52 % 0.00 in
13:12 24.3 °F 8.7 °F 30.19 in WSW 24.2 mph 24.2 mph 51 % 0.00 in
13:23 22.8 °F 7.4 °F 30.19 in WSW 24.2 mph 24.2 mph 51 % 0.00 in
13:29 24.1 °F 8.5 °F 30.19 in WSW 24.2 mph 24.2 mph 51 % 0.00 in
13:37 25.3 °F 9.7 °F 30.19 in SW 8.1 mph 8.1 mph 51 % 0.00 in
13:42 26.4 °F 10.7 °F 30.19 in SW 8.1 mph 8.1 mph 51 % 0.00 in
13:47 27.0 °F 11.2 °F 30.19 in SW 8.1 mph 8.1 mph 51 % 0.00 in
13:52 27.1 °F 10.9 °F 30.19 in WSW 24.2 mph 24.2 mph 50 % 0.00 in
13:57 27.1 °F 10.9 °F 30.19 in WSW 24.2 mph 24.2 mph 50 % 0.00 in
14:02 27.1 °F 10.9 °F 30.19 in WSW 24.2 mph 24.2 mph 50 % 0.00 in
14:07 27.1 °F 10.9 °F 30.16 in WSW 24.2 mph 24.2 mph 50 % 0.00 in
14:12 26.6 °F 9.5 °F 30.16 in SW 26.5 mph 26.5 mph 48 % 0.00 in
14:17 26.6 °F 9.5 °F 30.16 in SW 26.5 mph 26.5 mph 48 % 0.00 in
14:22 26.4 °F 9.4 °F 30.13 in SW 26.5 mph 26.5 mph 48 % 0.00 in
14:28 26.2 °F 9.2 °F 30.13 in SW 26.5 mph 26.5 mph 48 % 0.00 in
14:33 26.2 °F 9.6 °F 30.13 in SW 24.2 mph 24.2 mph 49 % 0.00 in
14:35 26.2 °F 9.6 °F 30.13 in SW 24.2 mph 24.2 mph 49 % 0.00 in
14:37 26.2 °F 9.6 °F 30.13 in SW 24.2 mph 24.2 mph 49 % 0.00 in
14:42 26.1 °F 9.5 °F 30.13 in SW 24.2 mph 24.2 mph 49 % 0.00 in
14:45 25.9 °F 9.3 °F 30.13 in SW 24.2 mph 24.2 mph 49 % 0.00 in
14:47 25.7 °F 9.2 °F 30.13 in SW 24.2 mph 24.2 mph 49 % 0.00 in
14:51 25.5 °F 8.5 °F 30.13 in SW 26.5 mph 26.5 mph 48 % 0.00 in
14:56 25.3 °F 8.4 °F 30.13 in SW 26.5 mph 26.5 mph 48 % 0.00 in
15:01 25.0 °F 8.0 °F 30.13 in SW 26.5 mph 26.5 mph 48 % 0.00 in
15:06 24.6 °F 7.7 °F 30.13 in SW 26.5 mph 26.5 mph 48 % 0.00 in
15:11 24.1 °F 6.7 °F 30.13 in SW 28.8 mph 28.8 mph 47 % 0.00 in
15:12 24.1 °F 6.7 °F 30.13 in SW 28.8 mph 28.8 mph 47 % 0.00 in
15:16 23.7 °F 6.4 °F 30.13 in SW 28.8 mph 28.8 mph 47 % 0.00 in
15:21 23.4 °F 6.1 °F 30.13 in SW 28.8 mph 28.8 mph 47 % 0.00 in
15:22 23.2 °F 5.9 °F 30.10 in SW 28.8 mph 28.8 mph 47 % 0.00 in
15:24 23.0 °F 5.7 °F 30.10 in SW 28.8 mph 28.8 mph 47 % 0.00 in
15:26 22.8 °F 5.6 °F 30.10 in SW 28.8 mph 28.8 mph 47 % 0.00 in
15:30 22.6 °F 5.9 °F 30.10 in SW 28.8 mph 28.8 mph 48 % 0.00 in
15:32 22.5 °F 5.7 °F 30.10 in SW 28.8 mph 28.8 mph 48 % 0.00 in
15:34 22.5 °F 5.7 °F 30.10 in SW 28.8 mph 28.8 mph 48 % 0.00 in
15:39 22.1 °F 5.4 °F 30.10 in SW 28.8 mph 28.8 mph 48 % 0.00 in
15:44 21.9 °F 5.2 °F 30.10 in SW 28.8 mph 28.8 mph 48 % 0.00 in
15:48 21.7 °F 5.0 °F 30.10 in SW 28.8 mph 28.8 mph 48 % 0.00 in
15:49 21.7 °F 5.0 °F 30.10 in SW 28.8 mph 28.8 mph 48 % 0.00 in
15:54 21.6 °F 4.4 °F 30.10 in WSW 27.6 mph 27.6 mph 47 % 0.00 in
15:59 21.2 °F 4.1 °F 30.10 in WSW 27.6 mph 27.6 mph 47 % 0.00 in
16:04 21.0 °F 3.9 °F 30.10 in WSW 27.6 mph 27.6 mph 47 % 0.00 in
16:09 20.8 °F 3.7 °F 30.10 in WSW 27.6 mph 27.6 mph 47 % 0.00 in
16:14 20.5 °F 2.9 °F 30.10 in SW 24.2 mph 24.2 mph 46 % 0.00 in
16:19 20.3 °F 2.8 °F 30.10 in SW 24.2 mph 24.2 mph 46 % 0.00 in
16:24 20.1 °F 2.6 °F 30.10 in SW 24.2 mph 24.2 mph 46 % 0.00 in
16:29 19.8 °F 2.3 °F 30.10 in SW 24.2 mph 24.2 mph 46 % 0.00 in
16:34 19.6 °F 3.0 °F 30.10 in SW 20.7 mph 20.7 mph 48 % 0.00 in
16:39 19.4 °F 2.9 °F 30.10 in SW 20.7 mph 20.7 mph 48 % 0.00 in
16:44 19.0 °F 2.5 °F 30.10 in SW 20.7 mph 20.7 mph 48 % 0.00 in
16:49 18.9 °F 2.4 °F 30.10 in SW 20.7 mph 20.7 mph 48 % 0.00 in
16:54 18.7 °F 3.1 °F 30.10 in SW 20.7 mph 20.7 mph 50 % 0.00 in
16:59 18.5 °F 2.9 °F 30.10 in SW 20.7 mph 20.7 mph 50 % 0.00 in
17:04 18.3 °F 2.8 °F 30.10 in SW 20.7 mph 20.7 mph 50 % 0.00 in
17:09 18.0 °F 2.4 °F 30.10 in SW 20.7 mph 20.7 mph 50 % 0.00 in
17:14 17.8 °F 1.8 °F 30.10 in WSW 10.4 mph 10.4 mph 49 % 0.00 in
17:19 17.6 °F 1.7 °F 30.10 in WSW 10.4 mph 10.4 mph 49 % 0.00 in
17:24 17.4 °F 1.5 °F 30.10 in WSW 10.4 mph 10.4 mph 49 % 0.00 in
17:29 17.2 °F 1.3 °F 30.10 in WSW 10.4 mph 10.4 mph 49 % 0.00 in
17:34 17.1 °F 1.2 °F 30.10 in WSW 19.6 mph 19.6 mph 49 % 0.00 in
17:39 16.9 °F 1.0 °F 30.10 in WSW 19.6 mph 19.6 mph 49 % 0.00 in
17:44 16.9 °F 1.0 °F 30.10 in WSW 19.6 mph 19.6 mph 49 % 0.00 in
17:45 16.9 °F 1.0 °F 30.10 in WSW 19.6 mph 19.6 mph 49 % 0.00 in
17:50 16.7 °F 0.8 °F 30.10 in WSW 19.6 mph 19.6 mph 49 % 0.00 in
17:55 16.5 °F 0.7 °F 30.10 in WSW 19.6 mph 19.6 mph 49 % 0.00 in
18:00 16.5 °F 0.7 °F 30.10 in WSW 19.6 mph 19.6 mph 49 % 0.00 in
18:05 16.5 °F 0.7 °F 30.10 in WSW 19.6 mph 19.6 mph 49 % 0.00 in
18:10 16.5 °F 1.9 °F 30.07 in SW 19.6 mph 19.6 mph 52 % 0.00 in
18:15 16.5 °F 1.9 °F 30.07 in SW 19.6 mph 19.6 mph 52 % 0.00 in
18:20 16.5 °F 1.9 °F 30.07 in SW 19.6 mph 19.6 mph 52 % 0.00 in
18:25 16.5 °F 1.9 °F 30.07 in SW 19.6 mph 19.6 mph 52 % 0.00 in
18:30 16.5 °F 2.7 °F 30.07 in SSW 24.2 mph 24.2 mph 54 % 0.00 in
18:35 16.5 °F 2.7 °F 30.07 in SSW 24.2 mph 24.2 mph 54 % 0.00 in
18:40 16.5 °F 2.7 °F 30.07 in SSW 24.2 mph 24.2 mph 54 % 0.00 in
18:45 16.5 °F 2.7 °F 30.07 in SSW 24.2 mph 24.2 mph 54 % 0.00 in
18:50 16.5 °F 3.9 °F 30.07 in SW 24.2 mph 24.2 mph 57 % 0.00 in
18:55 16.2 °F 3.6 °F 30.07 in SW 9.2 mph 9.2 mph 57 % 0.00 in
19:00 16.2 °F 3.6 °F 30.07 in SW 9.2 mph 9.2 mph 57 % 0.00 in
19:05 16.2 °F 3.6 °F 30.07 in SW 9.2 mph 9.2 mph 57 % 0.00 in
19:10 16.0 °F 3.4 °F 30.07 in SW 9.2 mph 12.7 mph 57 % 0.00 in
19:15 16.0 °F 3.4 °F 30.07 in SW 19.6 mph 19.6 mph 57 % 0.00 in
19:20 15.8 °F 3.2 °F 30.07 in SW 19.6 mph 19.6 mph 57 % 0.00 in
19:25 15.8 °F 3.2 °F 30.07 in SW 19.6 mph 19.6 mph 57 % 0.00 in
19:30 15.8 °F 3.2 °F 30.07 in WSW 19.6 mph 19.6 mph 57 % 0.00 in
19:35 15.8 °F 3.2 °F 30.07 in WSW 23.0 mph 23.0 mph 57 % 0.00 in
19:40 15.8 °F 3.2 °F 30.07 in WSW 23.0 mph 23.0 mph 57 % 0.00 in
19:45 15.8 °F 3.2 °F 30.07 in WSW 23.0 mph 23.0 mph 57 % 0.00 in
19:50 15.8 °F 4.0 °F 30.07 in WSW 23.0 mph 23.0 mph 59 % 0.00 in
19:55 15.6 °F 3.8 °F 30.07 in WSW 23.0 mph 23.0 mph 59 % 0.00 in
20:00 15.4 °F 3.6 °F 30.07 in WSW 23.0 mph 23.0 mph 59 % 0.00 in
20:05 15.3 °F 3.5 °F 30.07 in WSW 23.0 mph 23.0 mph 59 % 0.00 in
20:10 15.3 °F 3.8 °F 30.04 in WSW 23.0 mph 23.0 mph 60 % 0.00 in
20:15 15.1 °F 3.7 °F 30.04 in WSW 24.2 mph 24.2 mph 60 % 0.00 in
20:20 15.1 °F 3.7 °F 30.04 in WSW 24.2 mph 24.2 mph 60 % 0.00 in
20:25 14.9 °F 3.5 °F 30.07 in WSW 24.2 mph 24.2 mph 60 % 0.00 in
20:30 14.9 °F 3.9 °F 30.07 in WSW 24.2 mph 24.2 mph 61 % 0.00 in
20:35 14.7 °F 3.7 °F 30.07 in WSW 19.6 mph 19.6 mph 61 % 0.00 in
20:40 14.5 °F 3.5 °F 30.04 in WSW 19.6 mph 19.6 mph 61 % 0.00 in
20:45 14.5 °F 3.5 °F 30.04 in WSW 19.6 mph 19.6 mph 61 % 0.00 in
20:50 14.4 °F 3.7 °F 30.04 in WSW 20.7 mph 20.7 mph 62 % 0.00 in
20:55 14.4 °F 3.7 °F 30.04 in WSW 20.7 mph 20.7 mph 62 % 0.00 in
21:00 14.4 °F 3.7 °F 30.04 in WSW 20.7 mph 20.7 mph 62 % 0.00 in
21:05 14.4 °F 3.7 °F 30.04 in WSW 20.7 mph 20.7 mph 62 % 0.00 in
21:10 14.4 °F 3.7 °F 30.04 in WSW 20.7 mph 20.7 mph 62 % 0.00 in
21:15 14.4 °F 3.7 °F 30.04 in WSW 26.5 mph 26.5 mph 62 % 0.00 in
21:20 14.5 °F 3.9 °F 30.04 in WSW 26.5 mph 26.5 mph 62 % 0.00 in
21:25 14.5 °F 3.9 °F 30.04 in WSW 26.5 mph 26.5 mph 62 % 0.00 in
21:30 14.5 °F 4.6 °F 30.04 in WSW 26.5 mph 26.5 mph 64 % 0.00 in
21:35 14.5 °F 4.6 °F 30.04 in WSW 15.0 mph 15.0 mph 64 % 0.00 in
21:40 14.7 °F 4.7 °F 30.04 in WSW 15.0 mph 15.0 mph 64 % 0.00 in
21:45 14.7 °F 4.7 °F 30.04 in WSW 15.0 mph 15.0 mph 64 % 0.00 in
21:50 14.5 °F 5.2 °F 30.04 in WSW 15.0 mph 15.0 mph 66 % 0.00 in
21:55 14.5 °F 5.2 °F 30.04 in WSW 25.3 mph 25.3 mph 66 % 0.00 in
22:00 14.5 °F 5.2 °F 30.04 in WSW 25.3 mph 25.3 mph 66 % 0.00 in
22:05 14.5 °F 5.2 °F 30.04 in WSW 25.3 mph 25.3 mph 66 % 0.00 in
22:10 14.5 °F 5.2 °F 30.04 in WSW 25.3 mph 25.3 mph 66 % 0.00 in
22:15 14.5 °F 5.2 °F 30.04 in WSW 10.4 mph 10.4 mph 66 % 0.00 in
22:20 15.3 °F 5.9 °F 30.04 in WSW 10.4 mph 10.4 mph 66 % 0.00 in
22:25 15.3 °F 5.9 °F 30.04 in WSW 10.4 mph 10.4 mph 66 % 0.00 in
22:30 15.1 °F 6.1 °F 30.04 in WSW 18.4 mph 18.4 mph 67 % 0.00 in
22:35 15.1 °F 6.1 °F 30.04 in WSW 18.4 mph 18.4 mph 67 % 0.00 in
22:40 15.1 °F 6.1 °F 30.01 in WSW 18.4 mph 18.4 mph 67 % 0.00 in
22:45 15.1 °F 6.1 °F 30.01 in WSW 18.4 mph 18.4 mph 67 % 0.00 in
22:50 15.1 °F 6.4 °F 30.01 in WSW 18.4 mph 18.4 mph 68 % 0.00 in
22:55 15.1 °F 6.4 °F 30.01 in WSW 19.6 mph 19.6 mph 68 % 0.00 in
23:00 15.1 °F 6.4 °F 30.01 in WSW 19.6 mph 19.6 mph 68 % 0.00 in
23:05 15.1 °F 6.4 °F 30.01 in WSW 19.6 mph 19.6 mph 68 % 0.00 in
23:10 15.1 °F 6.4 °F 30.01 in WSW 19.6 mph 19.6 mph 68 % 0.00 in
23:15 15.3 °F 6.6 °F 30.01 in WSW 19.6 mph 19.6 mph 68 % 0.00 in
23:20 15.3 °F 6.6 °F 30.01 in WSW 19.6 mph 19.6 mph 68 % 0.00 in
23:25 15.3 °F 6.6 °F 30.01 in WSW 19.6 mph 19.6 mph 68 % 0.00 in
23:30 15.3 °F 6.9 °F 30.01 in WSW 19.6 mph 19.6 mph 69 % 0.00 in
23:35 15.3 °F 6.9 °F 30.01 in WSW 19.6 mph 19.6 mph 69 % 0.00 in
23:40 15.3 °F 6.9 °F 30.01 in WSW 19.6 mph 19.6 mph 69 % 0.00 in
Live Plover Wisconsin Weather - Tim Bubla
Compliments of Weather Underground - 3.25 mb

Script developed by  Jim McMurry - jmcmurry@mwt.net Adapted for the template by  Wim van der Kuil - Leuven-Template.eu